HDAM/JIB METAR and TAF weather

Enter ICAO airport designator
Station Type Date Time Source
HDAM METAR 2021/03/02 20:00 UTC NOAA

HDAM 022000Z 16005KT 9999 SCT020 26/22 Q1015


Station Type Date Time Source
HDAM Decoded METAR 2021/03/02 20:00 UTC NOAA

Djibouti \ Ambouli, Djibouti (HDAM) 11-33N 043-10E
Mar 02, 2021 - 03:00 PM EST / 2021.03.02 2000 UTC
Wind: from the SSE (160 degrees) at 6 MPH (5 KT):0
Visibility: greater than 7 mile(s):0
Sky conditions: partly cloudy
Temperature: 78 F (26 C)
Dew Point: 71 F (22 C)
Relative Humidity: 78%
Pressure (altimeter): 29.97 in. Hg (1015 hPa)
ob: HDAM 022000Z 16005KT 9999 SCT020 26/22 Q1015
cycle: 20

Station Type Date Time Source
HDAM TAF 2021/03/02 18:27 UTC NOAA

TAF TAF HDAM 021700Z 0218/0318 VRB05KT 9999 FEW020
BECMG 0300/0306 00000KT 8000 HZ SCT020 SCT030
BECMG 0306/0312 08012KT SCT023

Example: see airport list